sensor_id;sensor_type;location;lat;lon;timestamp;pressure;altitude;pressure_sealevel;temperature;humidity
49627;BME280;35527;54.616;39.786;2023-04-20T00:00:41;100422.50;;;8.12;49.72
49627;BME280;35527;54.616;39.786;2023-04-20T00:03:45;100407.34;;;7.97;49.42
49627;BME280;35527;54.616;39.786;2023-04-20T00:06:48;100413.28;;;8.02;49.62
49627;BME280;35527;54.616;39.786;2023-04-20T00:09:53;100417.41;;;8.09;49.69
49627;BME280;35527;54.616;39.786;2023-04-20T00:12:56;100398.00;;;7.93;49.33
49627;BME280;35527;54.616;39.786;2023-04-20T00:16:01;100418.38;;;8.04;49.68
49627;BME280;35527;54.616;39.786;2023-04-20T00:19:07;100415.97;;;7.96;49.95
49627;BME280;35527;54.616;39.786;2023-04-20T00:22:15;100416.88;;;7.92;49.76
49627;BME280;35527;54.616;39.786;2023-04-20T00:25:19;100366.75;;;7.63;49.80
49627;BME280;35527;54.616;39.786;2023-04-20T00:28:27;100405.09;;;7.80;49.97
49627;BME280;35527;54.616;39.786;2023-04-20T00:31:32;100401.72;;;7.77;49.95
49627;BME280;35527;54.616;39.786;2023-04-20T00:34:36;100393.94;;;7.78;49.63
49627;BME280;35527;54.616;39.786;2023-04-20T00:37:41;100405.91;;;7.82;50.04
49627;BME280;35527;54.616;39.786;2023-04-20T00:40:44;100394.56;;;7.93;49.42
49627;BME280;35527;54.616;39.786;2023-04-20T00:43:53;100400.47;;;7.98;49.65
49627;BME280;35527;54.616;39.786;2023-04-20T00:46:57;100402.13;;;8.00;49.60
49627;BME280;35527;54.616;39.786;2023-04-20T00:50:00;100365.59;;;7.78;49.93
49627;BME280;35527;54.616;39.786;2023-04-20T00:53:05;100398.78;;;7.95;49.62
49627;BME280;35527;54.616;39.786;2023-04-20T00:56:08;100388.47;;;7.95;49.33
49627;BME280;35527;54.616;39.786;2023-04-20T00:59:11;100391.13;;;7.92;49.88
49627;BME280;35527;54.616;39.786;2023-04-20T01:02:14;100389.53;;;7.85;50.02
49627;BME280;35527;54.616;39.786;2023-04-20T01:05:17;100402.38;;;7.88;50.31
49627;BME280;35527;54.616;39.786;2023-04-20T01:08:25;100387.16;;;7.76;50.44
49627;BME280;35527;54.616;39.786;2023-04-20T01:11:30;100372.53;;;7.76;50.14
49627;BME280;35527;54.616;39.786;2023-04-20T01:14:36;100389.13;;;7.60;50.84
49627;BME280;35527;54.616;39.786;2023-04-20T01:17:38;100377.38;;;7.45;51.30
49627;BME280;35527;54.616;39.786;2023-04-20T01:20:46;100386.56;;;7.60;51.10
49627;BME280;35527;54.616;39.786;2023-04-20T01:23:49;100379.78;;;7.54;51.72
49627;BME280;35527;54.616;39.786;2023-04-20T01:26:52;100370.56;;;7.42;51.68
49627;BME280;35527;54.616;39.786;2023-04-20T01:29:55;100367.31;;;7.31;51.34
49627;BME280;35527;54.616;39.786;2023-04-20T01:33:03;100377.56;;;7.34;51.54
49627;BME280;35527;54.616;39.786;2023-04-20T01:36:08;100364.50;;;7.45;51.21
49627;BME280;35527;54.616;39.786;2023-04-20T01:39:11;100382.44;;;7.50;50.87
49627;BME280;35527;54.616;39.786;2023-04-20T01:42:14;100373.13;;;7.41;51.20
49627;BME280;35527;54.616;39.786;2023-04-20T01:45:19;100374.81;;;7.43;51.10
49627;BME280;35527;54.616;39.786;2023-04-20T01:48:25;100364.66;;;7.36;51.48
49627;BME280;35527;54.616;39.786;2023-04-20T01:51:28;100364.63;;;7.37;51.81
49627;BME280;35527;54.616;39.786;2023-04-20T01:54:32;100370.56;;;7.41;51.56
49627;BME280;35527;54.616;39.786;2023-04-20T01:57:38;100347.66;;;7.26;51.89
49627;BME280;35527;54.616;39.786;2023-04-20T02:00:45;100350.22;;;7.26;52.18
49627;BME280;35527;54.616;39.786;2023-04-20T02:03:50;100371.56;;;7.34;52.62
49627;BME280;35527;54.616;39.786;2023-04-20T02:06:55;100352.91;;;7.19;52.52
49627;BME280;35527;54.616;39.786;2023-04-20T02:09:59;100375.13;;;7.25;52.45
49627;BME280;35527;54.616;39.786;2023-04-20T02:13:05;100368.66;;;7.01;52.94
49627;BME280;35527;54.616;39.786;2023-04-20T02:16:09;100364.47;;;6.94;53.87
49627;BME280;35527;54.616;39.786;2023-04-20T02:19:12;100349.13;;;6.88;54.02
49627;BME280;35527;54.616;39.786;2023-04-20T02:22:16;100344.84;;;6.88;54.40
49627;BME280;35527;54.616;39.786;2023-04-20T02:25:21;100345.72;;;6.86;54.91
49627;BME280;35527;54.616;39.786;2023-04-20T02:28:25;100352.56;;;6.88;54.96
49627;BME280;35527;54.616;39.786;2023-04-20T02:31:28;100359.31;;;6.95;55.71
49627;BME280;35527;54.616;39.786;2023-04-20T02:34:33;100367.72;;;7.05;55.47
49627;BME280;35527;54.616;39.786;2023-04-20T02:37:38;100341.25;;;6.97;55.34
49627;BME280;35527;54.616;39.786;2023-04-20T02:40:41;100353.03;;;7.12;54.88
49627;BME280;35527;54.616;39.786;2023-04-20T02:43:47;100353.84;;;7.15;55.18
49627;BME280;35527;54.616;39.786;2023-04-20T02:46:52;100335.94;;;7.08;55.25
49627;BME280;35527;54.616;39.786;2023-04-20T02:49:58;100328.13;;;7.15;55.14
49627;BME280;35527;54.616;39.786;2023-04-20T02:53:02;100341.63;;;7.27;55.02
49627;BME280;35527;54.616;39.786;2023-04-20T02:56:08;100330.47;;;7.28;55.00
49627;BME280;35527;54.616;39.786;2023-04-20T02:59:27;100348.88;;;7.54;54.47
49627;BME280;35527;54.616;39.786;2023-04-20T03:02:41;100340.97;;;7.65;54.57
49627;BME280;35527;54.616;39.786;2023-04-20T03:05:46;100328.81;;;7.72;54.18
49627;BME280;35527;54.616;39.786;2023-04-20T03:08:54;100349.06;;;8.33;53.54
49627;BME280;35527;54.616;39.786;2023-04-20T03:12:22;100352.16;;;8.49;52.37
49627;BME280;35527;54.616;39.786;2023-04-20T03:15:25;100346.25;;;8.46;52.59
49627;BME280;35527;54.616;39.786;2023-04-20T03:18:41;100352.72;;;9.35;51.63
49627;BME280;35527;54.616;39.786;2023-04-20T03:21:49;100343.63;;;10.48;49.11
49627;BME280;35527;54.616;39.786;2023-04-20T03:24:55;100353.91;;;10.78;48.33
49627;BME280;35527;54.616;39.786;2023-04-20T03:28:20;100336.38;;;11.39;47.24
49627;BME280;35527;54.616;39.786;2023-04-20T03:31:23;100332.88;;;13.24;43.57
49627;BME280;35527;54.616;39.786;2023-04-20T03:34:30;100332.66;;;13.71;42.31
49627;BME280;35527;54.616;39.786;2023-04-20T03:37:36;100331.19;;;13.02;43.43
49627;BME280;35527;54.616;39.786;2023-04-20T03:40:40;100335.28;;;11.97;45.83
49627;BME280;35527;54.616;39.786;2023-04-20T03:43:43;100322.59;;;11.12;47.73
49627;BME280;35527;54.616;39.786;2023-04-20T03:46:47;100318.50;;;10.78;48.68
49627;BME280;35527;54.616;39.786;2023-04-20T03:49:50;100315.88;;;10.52;49.67
49627;BME280;35527;54.616;39.786;2023-04-20T03:52:55;100319.19;;;10.57;50.13
49627;BME280;35527;54.616;39.786;2023-04-20T03:55:58;100318.44;;;11.58;48.33
49627;BME280;35527;54.616;39.786;2023-04-20T03:59:31;100328.44;;;13.87;41.88
49627;BME280;35527;54.616;39.786;2023-04-20T04:03:03;100321.56;;;15.16;38.71
49627;BME280;35527;54.616;39.786;2023-04-20T04:06:09;100307.06;;;15.80;36.75
49627;BME280;35527;54.616;39.786;2023-04-20T04:09:16;100315.00;;;16.57;35.28
49627;BME280;35527;54.616;39.786;2023-04-20T04:12:20;100317.34;;;17.24;34.67
49627;BME280;35527;54.616;39.786;2023-04-20T04:15:23;100320.63;;;17.42;33.83
49627;BME280;35527;54.616;39.786;2023-04-20T04:18:46;100319.75;;;18.29;33.37
49627;BME280;35527;54.616;39.786;2023-04-20T04:21:51;100302.34;;;19.22;31.27
49627;BME280;35527;54.616;39.786;2023-04-20T04:25:08;100316.34;;;19.73;30.87
49627;BME280;35527;54.616;39.786;2023-04-20T04:28:18;100305.94;;;19.85;30.89
49627;BME280;35527;54.616;39.786;2023-04-20T04:31:50;100311.41;;;20.31;30.55
49627;BME280;35527;54.616;39.786;2023-04-20T04:34:53;100313.88;;;20.45;30.22
49627;BME280;35527;54.616;39.786;2023-04-20T04:37:58;100314.16;;;21.02;30.45
49627;BME280;35527;54.616;39.786;2023-04-20T04:41:03;100316.59;;;21.74;29.50
49627;BME280;35527;54.616;39.786;2023-04-20T04:44:10;100309.78;;;21.94;29.08
49627;BME280;35527;54.616;39.786;2023-04-20T04:47:16;100309.81;;;22.60;27.79
49627;BME280;35527;54.616;39.786;2023-04-20T04:50:21;100295.75;;;23.24;27.22
49627;BME280;35527;54.616;39.786;2023-04-20T04:53:29;100305.38;;;23.55;27.02
49627;BME280;35527;54.616;39.786;2023-04-20T04:56:35;100314.00;;;23.57;27.05
49627;BME280;35527;54.616;39.786;2023-04-20T04:59:38;100313.41;;;23.75;27.02
49627;BME280;35527;54.616;39.786;2023-04-20T05:02:41;100326.28;;;23.89;25.99
49627;BME280;35527;54.616;39.786;2023-04-20T05:05:44;100311.38;;;24.28;25.43
49627;BME280;35527;54.616;39.786;2023-04-20T05:08:51;100297.38;;;24.96;24.57
49627;BME280;35527;54.616;39.786;2023-04-20T05:11:55;100296.28;;;24.99;24.43
49627;BME280;35527;54.616;39.786;2023-04-20T05:14:59;100278.28;;;24.83;24.11
49627;BME280;35527;54.616;39.786;2023-04-20T05:18:02;100283.16;;;24.97;24.42
49627;BME280;35527;54.616;39.786;2023-04-20T05:21:11;100286.16;;;25.51;23.32
49627;BME280;35527;54.616;39.786;2023-04-20T05:24:15;100288.72;;;25.70;23.20
49627;BME280;35527;54.616;39.786;2023-04-20T05:27:18;100290.69;;;26.23;22.72
49627;BME280;35527;54.616;39.786;2023-04-20T05:30:21;100286.59;;;26.57;22.16
49627;BME280;35527;54.616;39.786;2023-04-20T05:33:26;100290.66;;;27.05;21.81
49627;BME280;35527;54.616;39.786;2023-04-20T05:36:31;100289.31;;;27.18;21.05
49627;BME280;35527;54.616;39.786;2023-04-20T05:39:35;100288.50;;;27.26;22.07
49627;BME280;35527;54.616;39.786;2023-04-20T05:42:41;100288.28;;;26.76;21.32
49627;BME280;35527;54.616;39.786;2023-04-20T05:45:47;100287.72;;;26.09;22.39
49627;BME280;35527;54.616;39.786;2023-04-20T05:48:51;100286.41;;;26.40;23.37
49627;BME280;35527;54.616;39.786;2023-04-20T05:51:54;100273.56;;;27.25;21.98
49627;BME280;35527;54.616;39.786;2023-04-20T05:55:00;100283.25;;;27.69;21.24
49627;BME280;35527;54.616;39.786;2023-04-20T05:58:05;100276.84;;;28.22;20.88
49627;BME280;35527;54.616;39.786;2023-04-20T06:01:08;100276.41;;;28.43;20.35
49627;BME280;35527;54.616;39.786;2023-04-20T06:04:11;100275.91;;;27.97;20.55
49627;BME280;35527;54.616;39.786;2023-04-20T06:07:14;100270.13;;;27.15;20.99
49627;BME280;35527;54.616;39.786;2023-04-20T06:10:17;100277.09;;;28.02;20.53
49627;BME280;35527;54.616;39.786;2023-04-20T06:13:23;100268.03;;;28.38;20.16
49627;BME280;35527;54.616;39.786;2023-04-20T06:16:26;100260.75;;;28.48;19.59
49627;BME280;35527;54.616;39.786;2023-04-20T06:19:29;100269.75;;;28.80;19.48
49627;BME280;35527;54.616;39.786;2023-04-20T06:22:36;100268.97;;;29.99;18.06
49627;BME280;35527;54.616;39.786;2023-04-20T06:25:43;100256.69;;;30.67;17.44
49627;BME280;35527;54.616;39.786;2023-04-20T06:28:46;100254.59;;;30.39;18.08
49627;BME280;35527;54.616;39.786;2023-04-20T06:31:50;100261.84;;;31.44;16.76
49627;BME280;35527;54.616;39.786;2023-04-20T06:34:52;100260.63;;;31.17;17.35
49627;BME280;35527;54.616;39.786;2023-04-20T06:37:56;100248.22;;;31.54;16.65
49627;BME280;35527;54.616;39.786;2023-04-20T06:41:01;100246.41;;;31.91;15.93
49627;BME280;35527;54.616;39.786;2023-04-20T06:44:06;100261.38;;;31.70;16.26
49627;BME280;35527;54.616;39.786;2023-04-20T06:47:13;100258.53;;;31.57;16.28
49627;BME280;35527;54.616;39.786;2023-04-20T06:50:17;100240.50;;;30.68;16.55
49627;BME280;35527;54.616;39.786;2023-04-20T06:53:20;100250.63;;;30.73;17.10
49627;BME280;35527;54.616;39.786;2023-04-20T06:56:24;100252.53;;;30.64;16.65
49627;BME280;35527;54.616;39.786;2023-04-20T06:59:30;100249.88;;;30.64;16.55
49627;BME280;35527;54.616;39.786;2023-04-20T07:05:45;100225.84;;;31.32;15.69
49627;BME280;35527;54.616;39.786;2023-04-20T07:08:48;100202.69;;;30.80;16.01
49627;BME280;35527;54.616;39.786;2023-04-20T07:11:52;100227.72;;;31.16;15.91
49627;BME280;35527;54.616;39.786;2023-04-20T07:14:57;100211.72;;;30.70;15.50
49627;BME280;35527;54.616;39.786;2023-04-20T07:17:59;100223.44;;;30.69;15.94
49627;BME280;35527;54.616;39.786;2023-04-20T07:21:02;100229.34;;;30.65;16.02
49627;BME280;35527;54.616;39.786;2023-04-20T07:24:06;100217.56;;;31.41;15.31
49627;BME280;35527;54.616;39.786;2023-04-20T07:27:09;100204.53;;;31.53;15.05
49627;BME280;35527;54.616;39.786;2023-04-20T07:30:12;100219.97;;;30.23;15.61
49627;BME280;35527;54.616;39.786;2023-04-20T07:33:17;100216.81;;;31.48;15.05
49627;BME280;35527;54.616;39.786;2023-04-20T07:36:23;100212.50;;;32.19;14.72
49627;BME280;35527;54.616;39.786;2023-04-20T07:39:26;100219.25;;;33.08;14.10
49627;BME280;35527;54.616;39.786;2023-04-20T07:42:31;100198.03;;;30.73;15.32
49627;BME280;35527;54.616;39.786;2023-04-20T07:45:33;100215.16;;;30.41;15.70
49627;BME280;35527;54.616;39.786;2023-04-20T07:48:42;100215.06;;;31.25;15.06
49627;BME280;35527;54.616;39.786;2023-04-20T07:51:44;100201.59;;;31.63;15.05
49627;BME280;35527;54.616;39.786;2023-04-20T07:54:47;100215.97;;;32.35;14.26
49627;BME280;35527;54.616;39.786;2023-04-20T07:57:50;100206.53;;;32.17;14.41
49627;BME280;35527;54.616;39.786;2023-04-20T08:00:56;100195.72;;;31.38;14.52
49627;BME280;35527;54.616;39.786;2023-04-20T08:03:59;100208.59;;;31.05;15.20
49627;BME280;35527;54.616;39.786;2023-04-20T08:07:02;100205.28;;;29.56;16.10
49627;BME280;35527;54.616;39.786;2023-04-20T08:10:06;100206.31;;;30.41;15.29
49627;BME280;35527;54.616;39.786;2023-04-20T08:13:14;100196.97;;;30.97;15.08
49627;BME280;35527;54.616;39.786;2023-04-20T08:16:19;100200.81;;;30.42;14.99
49627;BME280;35527;54.616;39.786;2023-04-20T08:19:22;100200.06;;;30.71;15.11
49627;BME280;35527;54.616;39.786;2023-04-20T08:22:25;100191.25;;;30.86;14.93
49627;BME280;35527;54.616;39.786;2023-04-20T08:25:32;100189.69;;;31.21;14.69
49627;BME280;35527;54.616;39.786;2023-04-20T08:28:35;100190.56;;;31.36;14.64
49627;BME280;35527;54.616;39.786;2023-04-20T08:31:38;100169.88;;;31.01;14.83
49627;BME280;35527;54.616;39.786;2023-04-20T08:34:42;100173.28;;;30.80;14.70
49627;BME280;35527;54.616;39.786;2023-04-20T08:37:46;100170.41;;;30.81;14.83
49627;BME280;35527;54.616;39.786;2023-04-20T08:40:50;100177.59;;;30.43;15.13
49627;BME280;35527;54.616;39.786;2023-04-20T08:43:57;100176.41;;;30.83;14.52
49627;BME280;35527;54.616;39.786;2023-04-20T08:47:00;100166.47;;;30.54;14.92
49627;BME280;35527;54.616;39.786;2023-04-20T08:50:06;100169.59;;;29.66;15.30
49627;BME280;35527;54.616;39.786;2023-04-20T08:53:10;100168.78;;;29.09;15.94
49627;BME280;35527;54.616;39.786;2023-04-20T08:56:12;100162.03;;;29.38;16.04
49627;BME280;35527;54.616;39.786;2023-04-20T08:59:17;100145.34;;;28.80;15.61
49627;BME280;35527;54.616;39.786;2023-04-20T09:02:21;100125.53;;;28.91;15.98
49627;BME280;35527;54.616;39.786;2023-04-20T09:05:25;100157.81;;;27.81;16.01
49627;BME280;35527;54.616;39.786;2023-04-20T09:08:38;100138.31;;;27.65;16.37
49627;BME280;35527;54.616;39.786;2023-04-20T09:11:46;100151.81;;;26.50;17.48
49627;BME280;35527;54.616;39.786;2023-04-20T09:14:50;100121.50;;;25.26;18.21
49627;BME280;35527;54.616;39.786;2023-04-20T09:17:57;100144.72;;;23.90;19.58
49627;BME280;35527;54.616;39.786;2023-04-20T09:21:08;100129.81;;;22.98;20.44
49627;BME280;35527;54.616;39.786;2023-04-20T09:24:19;100144.84;;;23.07;20.14
49627;BME280;35527;54.616;39.786;2023-04-20T09:27:23;100140.03;;;24.99;18.34
49627;BME280;35527;54.616;39.786;2023-04-20T09:30:42;100122.72;;;24.47;17.82
49627;BME280;35527;54.616;39.786;2023-04-20T09:34:00;100141.56;;;22.94;19.46
49627;BME280;35527;54.616;39.786;2023-04-20T09:37:08;100131.59;;;22.98;20.01
49627;BME280;35527;54.616;39.786;2023-04-20T09:40:10;100132.25;;;24.78;18.52
49627;BME280;35527;54.616;39.786;2023-04-20T09:43:17;100101.78;;;26.20;17.16
49627;BME280;35527;54.616;39.786;2023-04-20T09:46:21;100108.72;;;27.17;16.67
49627;BME280;35527;54.616;39.786;2023-04-20T09:49:26;100117.09;;;28.05;16.01
49627;BME280;35527;54.616;39.786;2023-04-20T09:52:39;100111.09;;;28.61;15.65
49627;BME280;35527;54.616;39.786;2023-04-20T09:55:49;100104.94;;;28.68;15.35
49627;BME280;35527;54.616;39.786;2023-04-20T09:58:53;100114.88;;;27.17;16.38
49627;BME280;35527;54.616;39.786;2023-04-20T10:01:57;100108.06;;;26.01;16.81
49627;BME280;35527;54.616;39.786;2023-04-20T10:05:07;100108.03;;;25.47;17.49
49627;BME280;35527;54.616;39.786;2023-04-20T10:08:12;100097.13;;;24.85;17.81
49627;BME280;35527;54.616;39.786;2023-04-20T10:11:35;100102.44;;;25.68;17.67
49627;BME280;35527;54.616;39.786;2023-04-20T10:14:56;100098.06;;;24.57;19.31
49627;BME280;35527;54.616;39.786;2023-04-20T10:18:13;100082.22;;;23.98;20.53
49627;BME280;35527;54.616;39.786;2023-04-20T10:21:19;100080.25;;;23.11;21.12
49627;BME280;35527;54.616;39.786;2023-04-20T10:24:30;100103.78;;;22.21;22.16
49627;BME280;35527;54.616;39.786;2023-04-20T10:27:35;100065.19;;;21.33;23.14
49627;BME280;35527;54.616;39.786;2023-04-20T10:30:49;100086.94;;;21.57;22.67
49627;BME280;35527;54.616;39.786;2023-04-20T10:33:55;100067.72;;;22.83;20.80
49627;BME280;35527;54.616;39.786;2023-04-20T10:40:12;100059.72;;;23.15;18.62
49627;BME280;35527;54.616;39.786;2023-04-20T10:43:20;100085.41;;;23.23;18.93
49627;BME280;35527;54.616;39.786;2023-04-20T10:46:24;100086.69;;;23.78;18.75
49627;BME280;35527;54.616;39.786;2023-04-20T10:49:29;100078.44;;;23.12;19.28
49627;BME280;35527;54.616;39.786;2023-04-20T10:52:37;100076.00;;;23.30;19.22
49627;BME280;35527;54.616;39.786;2023-04-20T10:55:42;100084.00;;;23.98;18.86
49627;BME280;35527;54.616;39.786;2023-04-20T10:58:47;100066.22;;;24.00;18.88
49627;BME280;35527;54.616;39.786;2023-04-20T11:01:51;100069.22;;;24.54;19.49
49627;BME280;35527;54.616;39.786;2023-04-20T11:04:58;100079.00;;;24.14;20.89
49627;BME280;35527;54.616;39.786;2023-04-20T11:08:15;100061.06;;;23.79;21.21
49627;BME280;35527;54.616;39.786;2023-04-20T11:11:23;100053.13;;;24.08;20.89
49627;BME280;35527;54.616;39.786;2023-04-20T11:14:27;100052.06;;;23.31;21.38
49627;BME280;35527;54.616;39.786;2023-04-20T11:17:36;100037.88;;;22.10;23.09
49627;BME280;35527;54.616;39.786;2023-04-20T11:20:53;100046.63;;;21.34;24.32
49627;BME280;35527;54.616;39.786;2023-04-20T11:23:56;100035.16;;;21.35;23.65
49627;BME280;35527;54.616;39.786;2023-04-20T11:27:01;100040.81;;;20.86;24.14
49627;BME280;35527;54.616;39.786;2023-04-20T11:30:07;100050.41;;;20.76;24.17
49627;BME280;35527;54.616;39.786;2023-04-20T11:33:14;100043.22;;;20.55;24.48
49627;BME280;35527;54.616;39.786;2023-04-20T11:36:29;100012.63;;;20.08;24.78
49627;BME280;35527;54.616;39.786;2023-04-20T11:39:35;100036.06;;;20.22;24.47
49627;BME280;35527;54.616;39.786;2023-04-20T11:42:40;100019.44;;;20.68;24.11
49627;BME280;35527;54.616;39.786;2023-04-20T11:49:40;100014.44;;;21.74;22.64
49627;BME280;35527;54.616;39.786;2023-04-20T11:52:43;100025.13;;;21.18;22.35
49627;BME280;35527;54.616;39.786;2023-04-20T11:55:46;100012.16;;;20.60;23.70
49627;BME280;35527;54.616;39.786;2023-04-20T11:58:49;100012.47;;;20.44;24.10
49627;BME280;35527;54.616;39.786;2023-04-20T12:01:52;99999.34;;;20.67;23.70
49627;BME280;35527;54.616;39.786;2023-04-20T12:04:57;99991.97;;;21.27;23.48
49627;BME280;35527;54.616;39.786;2023-04-20T12:08:04;99973.91;;;21.87;22.52
49627;BME280;35527;54.616;39.786;2023-04-20T12:11:07;99993.03;;;22.21;21.83
49627;BME280;35527;54.616;39.786;2023-04-20T12:14:11;99970.88;;;22.33;21.71
49627;BME280;35527;54.616;39.786;2023-04-20T12:17:20;99991.28;;;22.71;22.11
49627;BME280;35527;54.616;39.786;2023-04-20T12:20:26;99954.09;;;22.75;22.28
49627;BME280;35527;54.616;39.786;2023-04-20T12:23:30;99969.63;;;22.99;21.57
49627;BME280;35527;54.616;39.786;2023-04-20T12:26:34;99966.78;;;21.98;22.57
49627;BME280;35527;54.616;39.786;2023-04-20T12:29:40;99969.22;;;21.37;23.86
49627;BME280;35527;54.616;39.786;2023-04-20T12:32:45;99958.75;;;21.79;22.92
49627;BME280;35527;54.616;39.786;2023-04-20T12:35:48;99969.34;;;22.10;22.71
49627;BME280;35527;54.616;39.786;2023-04-20T12:38:53;99977.88;;;22.23;22.87
49627;BME280;35527;54.616;39.786;2023-04-20T12:41:58;99970.88;;;21.91;23.02
49627;BME280;35527;54.616;39.786;2023-04-20T12:45:04;99953.53;;;21.35;23.02
49627;BME280;35527;54.616;39.786;2023-04-20T12:48:06;99956.00;;;21.05;23.27
49627;BME280;35527;54.616;39.786;2023-04-20T12:51:11;99965.25;;;20.77;23.54
49627;BME280;35527;54.616;39.786;2023-04-20T12:54:19;99943.25;;;20.44;24.67
49627;BME280;35527;54.616;39.786;2023-04-20T12:57:23;99930.69;;;20.14;25.02
49627;BME280;35527;54.616;39.786;2023-04-20T13:00:26;99954.19;;;19.93;24.66
49627;BME280;35527;54.616;39.786;2023-04-20T13:03:31;99957.38;;;19.74;25.19
49627;BME280;35527;54.616;39.786;2023-04-20T13:06:37;99941.50;;;19.51;25.56
49627;BME280;35527;54.616;39.786;2023-04-20T13:09:41;99936.09;;;19.66;26.03
49627;BME280;35527;54.616;39.786;2023-04-20T13:12:43;99931.69;;;19.42;26.51
49627;BME280;35527;54.616;39.786;2023-04-20T13:15:47;99941.38;;;19.18;26.73
49627;BME280;35527;54.616;39.786;2023-04-20T13:18:50;99944.94;;;18.80;27.56
49627;BME280;35527;54.616;39.786;2023-04-20T13:21:56;99941.38;;;18.68;28.20
49627;BME280;35527;54.616;39.786;2023-04-20T13:24:59;99942.69;;;18.50;27.91
49627;BME280;35527;54.616;39.786;2023-04-20T13:28:04;99933.81;;;18.27;28.70
49627;BME280;35527;54.616;39.786;2023-04-20T13:31:08;99937.78;;;18.32;28.53
49627;BME280;35527;54.616;39.786;2023-04-20T13:34:14;99914.13;;;18.21;28.91
49627;BME280;35527;54.616;39.786;2023-04-20T13:37:17;99934.53;;;18.16;29.21
49627;BME280;35527;54.616;39.786;2023-04-20T13:40:20;99936.44;;;18.01;29.21
49627;BME280;35527;54.616;39.786;2023-04-20T13:43:24;99935.50;;;18.15;29.18
49627;BME280;35527;54.616;39.786;2023-04-20T13:46:51;99926.38;;;18.08;29.34
49627;BME280;35527;54.616;39.786;2023-04-20T13:49:54;99916.13;;;17.92;29.64
49627;BME280;35527;54.616;39.786;2023-04-20T13:52:57;99940.72;;;17.89;29.73
49627;BME280;35527;54.616;39.786;2023-04-20T13:56:08;99940.19;;;17.84;29.92
49627;BME280;35527;54.616;39.786;2023-04-20T13:59:11;99924.94;;;17.76;28.57
49627;BME280;35527;54.616;39.786;2023-04-20T14:02:17;99934.16;;;17.69;28.83
49627;BME280;35527;54.616;39.786;2023-04-20T14:05:20;99924.41;;;17.46;29.06
49627;BME280;35527;54.616;39.786;2023-04-20T14:08:24;99925.50;;;17.29;29.15
49627;BME280;35527;54.616;39.786;2023-04-20T14:11:28;99912.91;;;17.21;29.62
49627;BME280;35527;54.616;39.786;2023-04-20T14:14:30;99928.06;;;17.16;29.01
49627;BME280;35527;54.616;39.786;2023-04-20T14:17:34;99937.41;;;17.20;29.81
49627;BME280;35527;54.616;39.786;2023-04-20T14:20:37;99923.66;;;17.17;30.25
49627;BME280;35527;54.616;39.786;2023-04-20T14:23:45;99921.00;;;17.04;30.96
49627;BME280;35527;54.616;39.786;2023-04-20T14:26:51;99916.81;;;17.01;30.19
49627;BME280;35527;54.616;39.786;2023-04-20T14:30:07;99914.88;;;16.91;29.45
49627;BME280;35527;54.616;39.786;2023-04-20T14:33:12;99908.56;;;16.80;29.67
49627;BME280;35527;54.616;39.786;2023-04-20T14:36:16;99914.16;;;16.88;30.20
49627;BME280;35527;54.616;39.786;2023-04-20T14:39:19;99905.56;;;16.86;29.71
49627;BME280;35527;54.616;39.786;2023-04-20T14:42:24;99920.44;;;16.99;29.52
49627;BME280;35527;54.616;39.786;2023-04-20T14:45:27;99924.16;;;17.09;29.91
49627;BME280;35527;54.616;39.786;2023-04-20T14:48:32;99920.72;;;17.08;30.05
49627;BME280;35527;54.616;39.786;2023-04-20T14:51:35;99916.41;;;17.07;30.15
49627;BME280;35527;54.616;39.786;2023-04-20T14:54:41;99917.72;;;17.15;29.96
49627;BME280;35527;54.616;39.786;2023-04-20T14:57:43;99915.50;;;17.08;29.83
49627;BME280;35527;54.616;39.786;2023-04-20T15:00:47;99913.25;;;17.02;31.01
49627;BME280;35527;54.616;39.786;2023-04-20T15:03:50;99911.69;;;17.00;31.73
49627;BME280;35527;54.616;39.786;2023-04-20T15:06:56;99899.31;;;16.89;31.25
49627;BME280;35527;54.616;39.786;2023-04-20T15:09:59;99866.47;;;16.56;31.14
49627;BME280;35527;54.616;39.786;2023-04-20T15:13:05;99902.78;;;16.61;31.64
49627;BME280;35527;54.616;39.786;2023-04-20T15:16:07;99899.94;;;16.37;31.84
49627;BME280;35527;54.616;39.786;2023-04-20T15:19:13;99904.59;;;16.32;32.60
49627;BME280;35527;54.616;39.786;2023-04-20T15:22:17;99892.38;;;16.04;32.09
49627;BME280;35527;54.616;39.786;2023-04-20T15:25:20;99910.91;;;15.99;32.63
49627;BME280;35527;54.616;39.786;2023-04-20T15:28:24;99906.69;;;15.82;33.43
49627;BME280;35527;54.616;39.786;2023-04-20T15:31:29;99899.72;;;15.68;33.28
49627;BME280;35527;54.616;39.786;2023-04-20T15:34:32;99901.38;;;15.53;34.12
49627;BME280;35527;54.616;39.786;2023-04-20T15:37:36;99901.25;;;15.41;33.76
49627;BME280;35527;54.616;39.786;2023-04-20T15:40:39;99903.66;;;15.29;34.21
49627;BME280;35527;54.616;39.786;2023-04-20T15:43:45;99894.94;;;15.15;33.63
49627;BME280;35527;54.616;39.786;2023-04-20T15:46:48;99903.59;;;15.15;34.14
49627;BME280;35527;54.616;39.786;2023-04-20T15:49:55;99897.13;;;15.06;34.26
49627;BME280;35527;54.616;39.786;2023-04-20T15:53:03;99890.66;;;14.98;34.54
49627;BME280;35527;54.616;39.786;2023-04-20T15:56:09;99903.88;;;14.95;34.57
49627;BME280;35527;54.616;39.786;2023-04-20T15:59:12;99900.84;;;14.86;35.09
49627;BME280;35527;54.616;39.786;2023-04-20T16:02:17;99894.38;;;14.78;35.12
49627;BME280;35527;54.616;39.786;2023-04-20T16:05:21;99899.00;;;14.73;35.36
49627;BME280;35527;54.616;39.786;2023-04-20T16:08:28;99900.44;;;14.62;35.96
49627;BME280;35527;54.616;39.786;2023-04-20T16:11:38;99907.50;;;14.60;36.41
49627;BME280;35527;54.616;39.786;2023-04-20T16:14:44;99911.47;;;14.50;36.17